1286-й км

Карта отелей и гостиниц, располагающихся рядом с аэропортом 1286-й км :

1286-й км Республика Коми 62° 10' 19.0812" N, 49° 44' 32.5788" E
1286-й км Республика Коми 62° 10' 19.0812" N, 49° 44' 32.5788" E
Код аэродрома ИКАО: 
HF0V
Код аэродрома RU: 
ХФ0Ж
Координаты: 
N62.17197° E049.74238°
Превышение над уровнем моря : 
132
Основная полоса: 
04/22
Курс магнитный: 
040,7/220,7
Длина основной ВПП: 
25
Ширина основной ВПП: 
20
Покрытие основной ВПП: 
Твёрдое (бетон)
Освещение ВПП: 
Нет
Тип: 
Вертодром
Класс аэродрома: 
Принадлежность: 
ГА
Статус: 
Действующий
Сайт: 
E-mail аэродрома: 
Страна: 
Россия
Регион: 
Республика Коми
Город: 
Дополнительная информация: 
Оператор: нет данных.

Найти трансфер

С помощью этой формы Вы можете найти трансфер из аэропорта 1286-й км в город, аэропорт или вокзал:

Карта места

Javascript is required to view this map.

Погода в аэропортах:

Авиационная погода в Минеральные Воды

Регион: 
Погода METAR: 
URMM 270730Z 11007MPS 9999 -DZ OVC009 18/15 Q1018 R12/090070 NOSIG RMK MT OBSC QFE735/0980
Время наблюдения: 
2020-09-27T07:30:00Z
Температура C: 
18.0
Точка росы: 
15.0
Направление ветра: 
110
Скорость ветра (узлы): 
14
Метеорологическая видимость: 
6.21
Явления погоды: 
-DZ
Условия полета: 
IFR
Аэропорт подробнее: 

Авиационная погода в Перми

Регион: 
Погода METAR: 
USPP 270730Z VRB01MPS 5000 FU NSC 15/08 Q1033 R21/090060 NOSIG RMK QFE764
Время наблюдения: 
2020-09-27T07:30:00Z
Температура C: 
15.0
Точка росы: 
8.0
Направление ветра: 
0
Скорость ветра (узлы): 
2
Метеорологическая видимость: 
3.11
Явления погоды: 
FU
Условия полета: 
MVFR
Аэропорт подробнее: 

Авиационная погода в Гостомеле

Регион: 
Погода METAR: 
UKKM 270730Z AUTO 10004MPS 070V130 9999 -SHUP BKN070CB 16/11 Q1006
Время наблюдения: 
2020-09-27T07:30:00Z
Температура C: 
16.0
Точка росы: 
11.0
Направление ветра: 
100
Скорость ветра (узлы): 
8
Метеорологическая видимость: 
6.21
Явления погоды: 
SH UP
Условия полета: 
VFR
Аэропорт подробнее: 

Авиационная погода в Каяани

Регион: 
Погода METAR: 
EFKI 270720Z AUTO 09007KT 050V110 3900 BR OVC001 10/10 Q1022
Время наблюдения: 
2020-09-27T07:20:00Z
Температура C: 
10.0
Точка росы: 
10.0
Направление ветра: 
90
Скорость ветра (узлы): 
7
Метеорологическая видимость: 
2.42
Явления погоды: 
BR
Условия полета: 
LIFR